Time;durP1;ratioP1;P1;durP2;ratioP2;P2;SDS_P1;SDS_P2;PMS_P1;PMS_P2;Temp;Humidity;BMP_temperature;BMP_pressure;BME280_temperature;BME280_humidity;BME280_pressure;Samples;Min_cycle;Max_cycle;Signal;HPM_P1;HPM_P2
2023/12/21 00:02:20;;;;;;;2.70;2.00;;;;;;;3.54;92.24;95673.05;110130;1260;138799;-88
2023/12/21 00:04:46;;;;;;;2.70;2.00;;;;;;;3.53;92.07;95670.94;110223;1278;22207;-89
2023/12/21 00:07:12;;;;;;;4.70;1.90;;;;;;;3.52;92.32;95671.84;110353;1277;22256;-89
2023/12/21 00:09:40;;;;;;;3.50;2.00;;;;;;;3.53;92.73;95667.89;110275;1277;138071;-89
2023/12/21 00:12:06;;;;;;;3.50;1.70;;;;;;;3.51;92.52;95665.31;110063;1277;22996;-89
2023/12/21 00:14:32;;;;;;;1.90;1.80;;;;;;;3.51;92.72;95654.17;110061;1271;138575;-89
2023/12/21 00:16:58;;;;;;;2.70;1.80;;;;;;;3.52;92.59;95647.53;110261;1262;22219;-89
2023/12/21 00:19:25;;;;;;;2.60;1.70;;;;;;;3.55;92.50;95641.79;110160;1272;22400;-89
2023/12/21 00:21:51;;;;;;;2.20;1.50;;;;;;;3.56;92.61;95641.66;110153;1272;137573;-88
2023/12/21 00:24:17;;;;;;;2.00;1.70;;;;;;;3.56;92.76;95634.82;110323;1273;22854;-88
2023/12/21 00:26:43;;;;;;;1.40;1.30;;;;;;;3.56;92.56;95631.25;109990;1276;138303;-89
2023/12/21 00:29:09;;;;;;;2.30;1.50;;;;;;;3.57;92.80;95633.18;110329;1268;22419;-89
2023/12/21 00:31:35;;;;;;;1.90;1.60;;;;;;;3.57;92.55;95619.79;110195;1271;138954;-88
2023/12/21 00:34:01;;;;;;;2.10;1.30;;;;;;;3.57;92.59;95617.75;110365;1270;22263;-89
2023/12/21 00:36:27;;;;;;;1.70;1.30;;;;;;;3.56;92.52;95614.59;110038;1277;22195;-88
2023/12/21 00:38:54;;;;;;;1.80;1.40;;;;;;;3.57;92.98;95617.10;110070;1272;138441;-89
2023/12/21 00:41:20;;;;;;;1.70;1.30;;;;;;;3.57;92.46;95607.48;110109;1277;23282;-89
2023/12/21 00:43:46;;;;;;;1.50;1.20;;;;;;;3.56;92.62;95608.91;110061;1273;138627;-89
2023/12/21 00:46:12;;;;;;;2.10;1.30;;;;;;;3.58;92.61;95607.71;110432;1270;22221;-88
2023/12/21 00:48:38;;;;;;;1.90;1.20;;;;;;;3.60;92.64;95614.42;110409;1276;22377;-88
2023/12/21 00:51:05;;;;;;;2.80;1.50;;;;;;;3.59;93.00;95612.76;110045;1277;137116;-89
2023/12/21 00:53:31;;;;;;;2.20;1.20;;;;;;;3.58;92.81;95613.04;110173;1277;22216;-89
2023/12/21 00:55:58;;;;;;;1.30;1.10;;;;;;;3.59;92.91;95610.52;110119;1270;138270;-89
2023/12/21 00:58:23;;;;;;;1.50;1.20;;;;;;;3.61;92.58;95610.52;110084;1278;22417;-89
2023/12/21 01:00:50;;;;;;;2.80;1.50;;;;;;;3.63;92.76;95614.59;110127;1277;22348;-89
2023/12/21 01:03:16;;;;;;;2.00;1.40;;;;;;;3.63;92.87;95611.86;110108;1277;138684;-89
2023/12/21 01:05:42;;;;;;;2.00;1.30;;;;;;;3.63;92.59;95612.34;110081;1275;22186;-89
2023/12/21 01:08:08;;;;;;;1.40;1.30;;;;;;;3.65;92.66;95605.89;110092;1277;139689;-89
2023/12/21 01:10:38;;;;;;;1.40;1.30;;;;;;;3.65;92.39;95602.71;110183;1277;22387;-88
2023/12/21 01:13:06;;;;;;;1.80;1.50;;;;;;;3.67;92.33;95606.15;110075;1270;22240;-89
2023/12/21 01:15:32;;;;;;;1.10;1.00;;;;;;;3.68;92.60;95599.73;110006;1273;138057;-88
2023/12/21 01:17:58;;;;;;;1.40;1.20;;;;;;;3.68;92.44;95595.80;110383;1277;23206;-89
2023/12/21 01:20:24;;;;;;;1.20;1.10;;;;;;;3.68;92.43;95599.23;110099;1277;138239;-89
2023/12/21 01:22:50;;;;;;;1.40;1.30;;;;;;;3.69;92.18;95594.50;110021;1272;22208;-89
2023/12/21 01:25:16;;;;;;;1.60;1.10;;;;;;;3.70;92.30;95583.09;110179;1271;22392;-88
2023/12/21 01:27:42;;;;;;;1.40;1.30;;;;;;;3.70;92.33;95581.55;110049;1277;138004;-89
2023/12/21 01:30:09;;;;;;;1.60;1.50;;;;;;;3.69;92.63;95574.03;110204;1270;22327;-89
2023/12/21 01:32:35;;;;;;;1.40;1.30;;;;;;;3.69;92.44;95570.46;110190;1275;138966;-89
2023/12/21 01:35:01;;;;;;;1.30;1.10;;;;;;;3.69;92.39;95568.25;110047;1275;22438;-89
2023/12/21 01:37:27;;;;;;;1.70;1.20;;;;;;;3.71;92.40;95567.48;110171;1277;23389;-88
2023/12/21 01:39:53;;;;;;;1.70;1.10;;;;;;;3.72;92.39;95564.20;110179;1277;23144;-89
2023/12/21 01:42:19;;;;;;;1.70;1.30;;;;;;;3.74;92.22;95571.80;110374;1277;22229;-88
2023/12/21 01:44:45;;;;;;;1.60;1.20;;;;;;;3.76;92.10;95563.77;110277;1273;138792;-89
2023/12/21 01:47:12;;;;;;;1.20;0.90;;;;;;;3.78;92.20;95567.48;110400;1270;22439;-89
2023/12/21 01:49:39;;;;;;;1.10;1.00;;;;;;;3.79;92.07;95566.86;110114;1270;139239;-88
2023/12/21 01:52:06;;;;;;;1.90;1.70;;;;;;;3.80;92.27;95562.52;110202;1277;22296;-88
2023/12/21 01:54:32;;;;;;;2.60;1.50;;;;;;;3.80;91.83;95560.27;110059;1275;22227;-89
2023/12/21 01:56:58;;;;;;;9.30;6.70;;;;;;;3.80;92.18;95561.75;110273;1270;137889;-89
2023/12/21 01:59:24;;;;;;;5.90;3.70;;;;;;;3.82;91.85;95555.97;110186;1270;22837;-89
2023/12/21 02:01:50;;;;;;;3.70;2.10;;;;;;;3.82;91.94;95552.73;109981;1278;139261;-88
2023/12/21 02:04:16;;;;;;;2.40;1.50;;;;;;;3.82;91.84;95557.13;110198;1269;22210;-88
2023/12/21 02:06:42;;;;;;;1.90;1.40;;;;;;;3.83;92.26;95560.14;110356;1272;22337;-90
2023/12/21 02:09:09;;;;;;;1.90;1.40;;;;;;;3.83;92.25;95552.05;110230;1270;138609;-89
2023/12/21 02:11:35;;;;;;;2.60;1.50;;;;;;;3.83;92.58;95549.64;110194;1277;22360;-89
2023/12/21 02:14:03;;;;;;;2.90;1.90;;;;;;;3.82;92.54;95542.03;109964;1273;139030;-89
2023/12/21 02:16:38;;;;;;;2.60;1.40;;;;;;;3.82;92.61;95543.09;110068;1277;22203;-89
2023/12/21 02:19:04;;;;;;;2.30;1.50;;;;;;;3.82;92.86;95531.62;110206;1276;22451;-89
2023/12/21 02:21:30;;;;;;;2.40;1.40;;;;;;;3.81;93.34;95528.92;110009;1276;138492;-89
2023/12/21 02:23:57;;;;;;;1.70;1.40;;;;;;;3.79;93.81;95529.67;110343;1277;22189;-88
2023/12/21 02:26:23;;;;;;;2.70;1.40;;;;;;;3.77;94.15;95528.16;110063;1277;138639;-89
2023/12/21 02:28:49;;;;;;;2.10;1.20;;;;;;;3.75;94.69;95521.90;110188;1275;22373;-88
2023/12/21 02:31:15;;;;;;;1.40;1.20;;;;;;;3.71;94.65;95513.73;110036;1277;22248;-88
2023/12/21 02:33:41;;;;;;;1.40;1.30;;;;;;;3.70;94.83;95510.09;109935;1277;138372;-89
2023/12/21 02:36:07;;;;;;;2.00;1.30;;;;;;;3.68;95.03;95501.39;110334;1277;22846;-89
2023/12/21 02:38:33;;;;;;;1.60;1.00;;;;;;;3.66;95.40;95503.80;109947;1278;138338;-88
2023/12/21 02:40:59;;;;;;;2.00;1.90;;;;;;;3.65;95.20;95503.97;110176;1275;22166;-89
2023/12/21 02:43:26;;;;;;;2.20;1.30;;;;;;;3.63;95.38;95493.89;110187;1271;22815;-89
2023/12/21 02:45:52;;;;;;;1.40;1.20;;;;;;;3.61;95.48;95486.66;110265;1270;137796;-89
2023/12/21 02:48:18;;;;;;;12.60;8.20;;;;;;;3.61;95.56;95482.10;110082;1277;22948;-89
2023/12/21 02:50:45;;;;;;;6.20;3.60;;;;;;;3.61;95.59;95471.12;109959;1277;138387;-88
2023/12/21 02:53:12;;;;;;;4.10;2.30;;;;;;;3.61;95.48;95475.07;110116;1277;23038;-89
2023/12/21 02:55:38;;;;;;;4.00;2.10;;;;;;;3.62;95.61;95467.94;110242;1275;138825;-89
2023/12/21 02:58:04;;;;;;;2.30;1.50;;;;;;;3.64;95.69;95456.52;110242;1272;22419;-89
2023/12/21 03:00:30;;;;;;;3.60;1.10;;;;;;;3.63;95.63;95450.34;110129;1277;22228;-89
2023/12/21 03:02:56;;;;;;;1.90;1.70;;;;;;;3.63;95.25;95440.42;110060;1278;138648;-89
2023/12/21 03:05:22;;;;;;;1.20;1.10;;;;;;;3.65;95.42;95437.52;110372;1277;22226;-89
2023/12/21 03:07:49;;;;;;;1.00;0.90;;;;;;;3.66;95.34;95438.10;110049;1273;138854;-88
2023/12/21 03:10:16;;;;;;;1.30;1.20;;;;;;;3.66;95.42;95425.58;110385;1277;22928;-88
2023/12/21 03:12:42;;;;;;;1.50;1.00;;;;;;;3.68;95.18;95420.60;110347;1273;22935;-89
2023/12/21 03:15:09;;;;;;;1.50;1.10;;;;;;;3.69;95.27;95418.05;110216;1271;138947;-89
2023/12/21 03:17:35;;;;;;;1.50;1.10;;;;;;;3.69;95.08;95415.29;110314;1270;22255;-89
2023/12/21 03:20:03;;;;;;;1.10;1.00;;;;;;;3.69;95.22;95409.98;109932;1277;138666;-89
2023/12/21 03:22:29;;;;;;;1.40;1.00;;;;;;;3.69;95.35;95407.27;110314;1274;23014;-89
2023/12/21 03:24:55;;;;;;;1.50;1.20;;;;;;;3.69;95.27;95395.29;110343;1274;22249;-89
2023/12/21 03:27:21;;;;;;;1.70;1.20;;;;;;;3.70;95.49;95392.45;110226;1276;138181;-89
2023/12/21 03:29:48;;;;;;;1.50;1.10;;;;;;;3.69;95.32;95393.20;110282;1270;22413;-89
2023/12/21 03:32:14;;;;;;;1.60;1.40;;;;;;;3.69;95.31;95386.00;110054;1277;139089;-88
2023/12/21 03:34:40;;;;;;;2.00;1.20;;;;;;;3.69;95.31;95381.70;110190;1277;22265;-89
2023/12/21 03:37:06;;;;;;;1.90;1.00;;;;;;;3.69;95.70;95383.79;110039;1270;23305;-89
2023/12/21 03:39:33;;;;;;;1.60;1.10;;;;;;;3.68;95.47;95370.17;110063;1277;138267;-89
2023/12/21 03:41:59;;;;;;;1.40;1.20;;;;;;;3.68;95.18;95365.46;110200;1270;22328;-89
2023/12/21 03:44:25;;;;;;;1.00;1.00;;;;;;;3.67;95.31;95362.51;110105;1272;138804;-88
2023/12/21 03:46:51;;;;;;;1.20;1.10;;;;;;;3.65;95.40;95358.17;110275;1270;22189;-89
2023/12/21 03:49:17;;;;;;;1.50;1.10;;;;;;;3.65;95.42;95341.64;110178;1276;22532;-89
2023/12/21 03:51:43;;;;;;;1.50;1.40;;;;;;;3.64;95.26;95328.19;110072;1275;138907;-88
2023/12/21 03:54:09;;;;;;;1.20;1.00;;;;;;;3.65;95.13;95324.46;110112;1275;23078;-89
2023/12/21 03:56:38;;;;;;;3.00;1.70;;;;;;;3.65;95.22;95317.95;109973;1276;138275;-88
2023/12/21 03:59:04;;;;;;;1.90;1.20;;;;;;;3.64;94.95;95310.75;110121;1277;22470;-89
2023/12/21 04:01:31;;;;;;;1.50;1.20;;;;;;;3.62;94.76;95301.00;110036;1276;138606;-88
2023/12/21 04:03:57;;;;;;;1.60;1.10;;;;;;;3.61;94.68;95306.20;110147;1270;22298;-89
2023/12/21 04:06:23;;;;;;;1.40;1.10;;;;;;;3.60;94.92;95288.88;110211;1272;22340;-89
2023/12/21 04:08:53;;;;;;;1.40;1.20;;;;;;;3.58;94.59;95295.20;110258;1262;138823;-89
2023/12/21 04:11:20;;;;;;;1.70;1.10;;;;;;;3.56;94.50;95279.61;110309;1273;22176;-88
2023/12/21 04:13:47;;;;;;;1.40;1.10;;;;;;;3.55;94.37;95285.39;110178;1270;138924;-89
2023/12/21 04:16:13;;;;;;;2.70;1.10;;;;;;;3.52;94.69;95280.08;110183;1277;22383;-89
2023/12/21 04:18:39;;;;;;;1.60;1.20;;;;;;;3.49;94.59;95283.40;110177;1277;22457;-89
2023/12/21 04:21:08;;;;;;;2.90;2.00;;;;;;;3.46;94.68;95284.39;110184;1270;138168;-89
2023/12/21 04:23:34;;;;;;;1.40;1.30;;;;;;;3.44;94.95;95280.83;110165;1277;22323;-89
2023/12/21 04:26:01;;;;;;;2.60;2.00;;;;;;;3.42;94.84;95280.17;110237;1275;138366;-88
2023/12/21 04:28:26;;;;;;;10.90;3.70;;;;;;;3.41;95.18;95276.67;110086;1278;22143;-88
2023/12/21 04:30:53;;;;;;;2.70;1.50;;;;;;;3.41;94.97;95282.03;110328;1277;23089;-89
2023/12/21 04:33:19;;;;;;;2.00;1.30;;;;;;;3.41;95.18;95277.73;110068;1277;138940;-89
2023/12/21 04:35:45;;;;;;;1.20;1.10;;;;;;;3.42;95.43;95270.14;110140;1271;22340;-88
2023/12/21 04:38:12;;;;;;;2.40;1.30;;;;;;;3.42;95.18;95269.59;110054;1278;138229;-89
2023/12/21 04:40:38;;;;;;;1.40;1.20;;;;;;;3.42;95.13;95256.59;110110;1276;22410;-89
2023/12/21 04:43:06;;;;;;;2.10;1.10;;;;;;;3.41;95.29;95247.27;110160;1268;22456;-89
2023/12/21 04:45:32;;;;;;;4.00;1.50;;;;;;;3.40;95.81;95246.86;110066;1277;138391;-89
2023/12/21 04:47:58;;;;;;;2.40;1.50;;;;;;;3.37;96.12;95239.77;110028;1277;22234;-89
2023/12/21 04:50:25;;;;;;;1.40;1.20;;;;;;;3.35;96.16;95234.33;110105;1262;138805;-89
2023/12/21 04:52:52;;;;;;;1.80;1.30;;;;;;;3.32;96.65;95227.83;110432;1277;22845;-88
2023/12/21 04:55:18;;;;;;;1.50;1.20;;;;;;;3.30;96.95;95223.98;110450;1273;22448;-89
2023/12/21 04:57:44;;;;;;;4.50;1.50;;;;;;;3.28;97.03;95223.36;109933;1274;138137;-89
2023/12/21 05:00:11;;;;;;;1.40;1.20;;;;;;;3.26;97.09;95226.63;110125;1276;23017;-88
2023/12/21 05:02:37;;;;;;;1.90;1.20;;;;;;;3.24;97.57;95220.10;110301;1271;138178;-89
2023/12/21 05:05:04;;;;;;;2.90;1.60;;;;;;;3.22;97.84;95222.10;110155;1270;22610;-89
2023/12/21 05:07:31;;;;;;;13.00;4.50;;;;;;;3.21;98.54;95216.04;109920;1277;138471;-89
2023/12/21 05:09:59;;;;;;;3.30;1.70;;;;;;;3.17;98.26;95223.11;110077;1269;22310;-89
2023/12/21 05:12:26;;;;;;;2.30;1.10;;;;;;;3.16;99.27;95208.39;110157;1272;22255;-89
2023/12/21 05:14:53;;;;;;;0.90;0.80;;;;;;;3.14;99.39;95213.34;110055;1269;138473;-89
2023/12/21 05:17:19;;;;;;;3.40;1.60;;;;;;;3.14;99.61;95207.38;110042;1278;22193;-89
2023/12/21 05:19:46;;;;;;;1.20;0.80;;;;;;;3.11;99.24;95203.21;109988;1277;138292;-89
2023/12/21 05:22:12;;;;;;;1.00;1.00;;;;;;;3.11;99.82;95197.32;110174;1276;22983;-88
2023/12/21 05:24:38;;;;;;;1.10;0.70;;;;;;;3.09;99.80;95195.11;110206;1277;23361;-89
2023/12/21 05:27:05;;;;;;;1.40;0.90;;;;;;;3.06;99.97;95183.77;110056;1272;138027;-89
2023/12/21 05:29:31;;;;;;;1.20;0.80;;;;;;;3.04;100.00;95184.67;110143;1275;22345;-89
2023/12/21 05:31:57;;;;;;;15.60;6.40;;;;;;;3.01;99.96;95174.84;109956;1277;138581;-89
2023/12/21 05:34:23;;;;;;;5.10;2.20;;;;;;;3.00;100.00;95172.23;110157;1276;22192;-89
2023/12/21 05:36:50;;;;;;;4.30;1.60;;;;;;;2.99;100.00;95166.48;110377;1277;22996;-89
2023/12/21 05:39:16;;;;;;;1.40;1.00;;;;;;;2.99;100.00;95166.02;109963;1275;139809;-89
2023/12/21 05:41:43;;;;;;;2.70;1.00;;;;;;;2.97;100.00;95159.27;110073;1276;22182;-89
2023/12/21 05:44:09;;;;;;;0.60;0.60;;;;;;;2.94;100.00;95149.42;110079;1278;138776;-89
2023/12/21 05:46:35;;;;;;;0.90;0.80;;;;;;;2.94;100.00;95147.38;110091;1278;22376;-89
2023/12/21 05:49:01;;;;;;;1.20;0.80;;;;;;;2.94;100.00;95140.20;110288;1266;22249;-88
2023/12/21 05:51:27;;;;;;;1.20;0.80;;;;;;;2.93;100.00;95146.48;109941;1270;138774;-89
2023/12/21 05:53:53;;;;;;;1.20;0.70;;;;;;;2.95;100.00;95150.71;110093;1274;23010;-89
2023/12/21 05:56:19;;;;;;;6.10;2.30;;;;;;;2.96;100.00;95144.99;110160;1272;138598;-89
2023/12/21 05:58:45;;;;;;;4.00;1.30;;;;;;;2.98;100.00;95144.53;110083;1271;22342;-89
2023/12/21 06:01:11;;;;;;;2.40;1.00;;;;;;;3.02;100.00;95130.43;110335;1275;22412;-88
2023/12/21 06:03:37;;;;;;;1.30;0.80;;;;;;;3.05;100.00;95120.73;110151;1277;138090;-89
2023/12/21 06:06:04;;;;;;;2.60;1.60;;;;;;;3.06;100.00;95119.41;110126;1277;22401;-89
2023/12/21 06:08:32;;;;;;;4.90;1.90;;;;;;;3.06;100.00;95109.34;110193;1276;138134;-89
2023/12/21 06:10:58;;;;;;;2.20;0.90;;;;;;;3.06;100.00;95120.23;110138;1277;22408;-89
2023/12/21 06:13:25;;;;;;;13.60;3.50;;;;;;;3.07;100.00;95118.45;110151;1277;23228;-89
2023/12/21 06:15:51;;;;;;;10.10;3.40;;;;;;;3.08;100.00;95114.75;110038;1277;139435;-89
2023/12/21 06:18:17;;;;;;;6.00;2.50;;;;;;;3.08;100.00;95110.01;110282;1275;22223;-89
2023/12/21 06:20:43;;;;;;;23.30;8.20;;;;;;;3.06;100.00;95106.58;110233;1276;138163;-89
2023/12/21 06:23:09;;;;;;;5.00;1.60;;;;;;;3.07;100.00;95102.92;110367;1274;23102;-89
2023/12/21 06:25:35;;;;;;;2.20;1.00;;;;;;;3.07;100.00;95109.05;110186;1270;139135;-88
2023/12/21 06:28:01;;;;;;;9.80;3.30;;;;;;;3.10;100.00;95110.27;110153;1277;22419;-89
2023/12/21 06:30:27;;;;;;;29.80;13.20;;;;;;;3.14;100.00;95110.93;110059;1277;22286;-89
2023/12/21 06:32:53;;;;;;;12.00;5.00;;;;;;;3.16;100.00;95112.33;110017;1277;138568;-89
2023/12/21 06:35:20;;;;;;;30.60;8.30;;;;;;;3.19;100.00;95118.70;110161;1271;22409;-89
2023/12/21 06:37:46;;;;;;;9.90;3.10;;;;;;;3.20;100.00;95114.26;110042;1273;138341;-89
2023/12/21 06:40:12;;;;;;;2.00;1.00;;;;;;;3.22;100.00;95112.52;110162;1277;23055;-89
2023/12/21 06:42:38;;;;;;;2.00;0.90;;;;;;;3.23;100.00;95110.75;110383;1271;22300;-89
2023/12/21 06:45:05;;;;;;;5.20;1.70;;;;;;;3.23;100.00;95115.73;110040;1278;138401;-89
2023/12/21 06:47:31;;;;;;;56.60;24.90;;;;;;;3.22;100.00;95121.05;110086;1276;23117;-89
2023/12/21 06:49:57;;;;;;;33.10;9.20;;;;;;;3.21;100.00;95127.70;110270;1270;138845;-89
2023/12/21 06:52:24;;;;;;;16.10;5.40;;;;;;;3.19;100.00;95121.39;110367;1276;22232;-89
2023/12/21 06:54:50;;;;;;;22.10;5.90;;;;;;;3.18;100.00;95125.70;110056;1277;22359;-89
2023/12/21 06:57:16;;;;;;;11.00;3.60;;;;;;;3.14;100.00;95119.98;110045;1270;138439;-89
2023/12/21 06:59:42;;;;;;;8.80;2.90;;;;;;;3.11;100.00;95117.94;110169;1276;22420;-89
2023/12/21 07:02:08;;;;;;;12.30;4.80;;;;;;;3.10;100.00;95124.55;110246;1270;138670;-89
2023/12/21 07:04:34;;;;;;;2.20;1.10;;;;;;;3.07;100.00;95123.58;110189;1276;22192;-89
2023/12/21 07:07:01;;;;;;;3.70;1.60;;;;;;;3.06;100.00;95119.05;110212;1275;22201;-89
2023/12/21 07:09:28;;;;;;;7.10;2.80;;;;;;;3.07;100.00;95118.09;110025;1277;138930;-89
2023/12/21 07:11:55;;;;;;;12.30;3.70;;;;;;;3.08;100.00;95110.32;110160;1274;22685;-89
2023/12/21 07:14:22;;;;;;;6.90;2.70;;;;;;;3.09;100.00;95117.39;110041;1273;139048;-89
2023/12/21 07:16:48;;;;;;;7.60;2.40;;;;;;;3.10;100.00;95128.98;110132;1269;22252;-89
2023/12/21 07:19:14;;;;;;;39.50;17.60;;;;;;;3.11;100.00;95128.98;110372;1276;23197;-89
2023/12/21 07:21:41;;;;;;;23.40;8.50;;;;;;;3.13;100.00;95126.95;110249;1276;138556;-89
2023/12/21 07:24:07;;;;;;;51.20;13.80;;;;;;;3.13;100.00;95134.61;110029;1278;22327;-89
2023/12/21 07:26:33;;;;;;;23.00;7.60;;;;;;;3.14;100.00;95121.52;109919;1278;138771;-89
2023/12/21 07:28:59;;;;;;;26.70;7.70;;;;;;;3.16;100.00;95112.01;110071;1270;22244;-89
2023/12/21 07:31:25;;;;;;;25.00;6.90;;;;;;;3.20;100.00;95120.14;110106;1278;23070;-89
2023/12/21 07:33:51;;;;;;;15.30;4.90;;;;;;;3.23;100.00;95116.16;110061;1277;138576;-89
2023/12/21 07:36:17;;;;;;;12.70;3.60;;;;;;;3.25;100.00;95114.06;110180;1277;22233;-89
2023/12/21 07:38:44;;;;;;;13.90;3.80;;;;;;;3.26;100.00;95123.91;110054;1278;139205;-90
2023/12/21 07:41:13;;;;;;;17.10;5.70;;;;;;;3.27;100.00;95126.50;110028;1274;23086;-89
2023/12/21 07:43:41;;;;;;;2.40;1.40;;;;;;;3.28;100.00;95128.84;110038;1274;138735;-89
2023/12/21 07:46:10;;;;;;;15.10;5.00;;;;;;;3.28;100.00;95129.04;110069;1278;22941;-89
2023/12/21 07:48:36;;;;;;;12.80;4.70;;;;;;;3.26;100.00;95120.29;110162;1276;22655;-89
2023/12/21 07:51:02;;;;;;;8.20;4.40;;;;;;;3.24;100.00;95107.31;110036;1277;139186;-89
2023/12/21 07:53:28;;;;;;;12.80;4.80;;;;;;;3.22;100.00;95095.03;110142;1277;23216;-90
2023/12/21 07:55:54;;;;;;;16.80;5.00;;;;;;;3.24;100.00;95105.66;109958;1277;138700;-89
2023/12/21 07:58:21;;;;;;;6.70;2.70;;;;;;;3.26;100.00;95113.31;110159;1273;22245;-89
2023/12/21 08:00:47;;;;;;;17.30;5.50;;;;;;;3.27;100.00;95110.11;110101;1273;22177;-89
2023/12/21 08:03:13;;;;;;;16.20;5.80;;;;;;;3.28;100.00;95111.86;110075;1273;139537;-89
2023/12/21 08:05:39;;;;;;;23.00;6.40;;;;;;;3.28;100.00;95117.83;110069;1272;22231;-89
2023/12/21 08:08:07;;;;;;;44.30;14.70;;;;;;;3.31;100.00;95117.05;110033;1276;139606;-89
2023/12/21 08:10:33;;;;;;;31.40;11.50;;;;;;;3.31;100.00;95119.55;110140;1270;22207;-89
2023/12/21 08:13:00;;;;;;;10.80;4.10;;;;;;;3.33;100.00;95113.48;110157;1277;22922;-89
2023/12/21 08:15:26;;;;;;;11.40;3.70;;;;;;;3.32;100.00;95105.42;109961;1276;138993;-90
2023/12/21 08:17:55;;;;;;;12.30;6.70;;;;;;;3.33;100.00;95099.25;110080;1277;22362;-89
2023/12/21 08:20:23;;;;;;;15.40;6.20;;;;;;;3.33;100.00;95095.92;110245;1278;138708;-89
2023/12/21 08:22:49;;;;;;;9.40;2.70;;;;;;;3.34;100.00;95097.62;110073;1271;22272;-89
2023/12/21 08:25:15;;;;;;;30.50;9.20;;;;;;;3.35;100.00;95103.29;110138;1273;23344;-89
2023/12/21 08:27:41;;;;;;;7.20;2.50;;;;;;;3.37;100.00;95094.33;109964;1269;138411;-89
2023/12/21 08:30:09;;;;;;;19.90;7.50;;;;;;;3.39;100.00;95091.55;110056;1273;23072;-89
2023/12/21 08:32:35;;;;;;;5.20;2.70;;;;;;;3.41;100.00;95092.85;110019;1277;138647;-89
2023/12/21 08:35:01;;;;;;;16.80;6.10;;;;;;;3.43;100.00;95091.77;110437;1277;23156;-89
2023/12/21 08:37:27;;;;;;;9.40;4.60;;;;;;;3.44;100.00;95085.95;110409;1270;22235;-89
2023/12/21 08:39:53;;;;;;;9.30;3.30;;;;;;;3.43;100.00;95078.22;110144;1276;22929;-89
2023/12/21 08:42:20;;;;;;;8.90;3.30;;;;;;;3.45;100.00;95076.08;110300;1270;23298;-89
2023/12/21 08:44:48;;;;;;;6.20;2.30;;;;;;;3.47;100.00;95070.97;110041;1274;138498;-89
2023/12/21 08:47:14;;;;;;;19.80;7.80;;;;;;;3.48;100.00;95064.19;110382;1273;22257;-89
2023/12/21 08:49:41;;;;;;;11.60;5.10;;;;;;;3.49;100.00;95056.80;110276;1277;138476;-89
2023/12/21 08:52:07;;;;;;;19.50;8.30;;;;;;;3.51;100.00;95051.65;110092;1273;22166;-89
2023/12/21 08:54:33;;;;;;;29.90;16.60;;;;;;;3.53;100.00;95049.31;110120;1278;22306;-89
2023/12/21 08:56:59;;;;;;;8.00;4.50;;;;;;;3.55;100.00;95038.48;110267;1270;138553;-89
2023/12/21 08:59:28;;;;;;;31.20;15.20;;;;;;;3.59;100.00;95034.53;110390;1277;22799;-89
2023/12/21 09:01:54;;;;;;;30.60;13.30;;;;;;;3.61;100.00;95029.12;110061;1276;138812;-89
2023/12/21 09:04:21;;;;;;;4.70;1.90;;;;;;;3.65;100.00;95012.29;110419;1269;22804;-88
2023/12/21 09:06:47;;;;;;;4.80;2.60;;;;;;;3.68;100.00;95006.77;110154;1276;22284;-89
2023/12/21 09:09:13;;;;;;;14.00;4.60;;;;;;;3.73;100.00;94995.39;109968;1278;139039;-89
2023/12/21 09:11:40;;;;;;;4.30;2.20;;;;;;;3.79;100.00;94989.77;110158;1276;22351;-89
2023/12/21 09:14:07;;;;;;;0.90;0.80;;;;;;;3.83;100.00;94974.80;110009;1270;138555;-89
2023/12/21 09:16:33;;;;;;;1.30;0.90;;;;;;;3.86;100.00;94959.42;110110;1277;23114;-89
2023/12/21 09:19:00;;;;;;;1.50;1.10;;;;;;;3.90;100.00;94954.20;110096;1276;22346;-89
2023/12/21 09:21:27;;;;;;;6.60;4.00;;;;;;;3.94;100.00;94942.12;110014;1270;152460;-89
2023/12/21 09:23:53;;;;;;;5.70;2.00;;;;;;;3.99;100.00;94938.51;110075;1265;22315;-89
2023/12/21 09:26:19;;;;;;;4.20;1.80;;;;;;;4.01;100.00;94931.89;109975;1270;137331;-89
2023/12/21 09:28:45;;;;;;;1.90;1.20;;;;;;;4.03;100.00;94917.41;110071;1273;22978;-89
2023/12/21 09:31:11;;;;;;;7.40;2.00;;;;;;;4.06;100.00;94907.70;110134;1270;22274;-89
2023/12/21 09:33:38;;;;;;;1.10;0.70;;;;;;;4.07;100.00;94896.28;110064;1270;138461;-89
2023/12/21 09:36:05;;;;;;;1.30;1.00;;;;;;;4.09;100.00;94892.59;110081;1271;22285;-89
2023/12/21 09:38:31;;;;;;;1.80;1.10;;;;;;;4.12;100.00;94878.51;110292;1269;138233;-89
2023/12/21 09:40:58;;;;;;;1.50;0.80;;;;;;;4.17;100.00;94875.55;110154;1277;22346;-89
2023/12/21 09:43:24;;;;;;;1.20;0.80;;;;;;;4.23;100.00;94865.95;110116;1277;22267;-89
2023/12/21 09:45:51;;;;;;;0.60;0.60;;;;;;;4.28;100.00;94855.33;110304;1270;136743;-89
2023/12/21 09:48:19;;;;;;;2.90;2.00;;;;;;;4.32;100.00;94854.77;110160;1278;22233;-89
2023/12/21 09:50:45;;;;;;;2.20;1.30;;;;;;;4.38;100.00;94856.85;110034;1274;138802;-89
2023/12/21 09:53:15;;;;;;;1.60;0.90;;;;;;;4.42;100.00;94849.13;110060;1275;22240;-89
2023/12/21 09:55:42;;;;;;;0.80;0.70;;;;;;;4.46;99.63;94845.77;109972;1276;138895;-89
2023/12/21 09:58:12;;;;;;;1.50;1.10;;;;;;;4.48;99.51;94848.42;110114;1270;22235;-89
2023/12/21 10:00:38;;;;;;;1.70;1.10;;;;;;;4.47;98.68;94839.44;110166;1277;22988;-89
2023/12/21 10:03:05;;;;;;;1.60;1.20;;;;;;;4.47;98.86;94836.74;110108;1273;138037;-89
2023/12/21 10:05:31;;;;;;;1.30;0.90;;;;;;;4.46;98.76;94830.52;110074;1274;22257;-89
2023/12/21 10:07:58;;;;;;;1.80;1.30;;;;;;;4.45;98.48;94835.70;110049;1278;138733;-89
2023/12/21 10:10:25;;;;;;;1.60;1.20;;;;;;;4.45;98.70;94837.64;110097;1274;22412;-88
2023/12/21 10:12:52;;;;;;;15.70;6.90;;;;;;;4.45;98.70;94829.58;110131;1267;22217;-88
2023/12/21 10:15:19;;;;;;;2.80;1.50;;;;;;;4.47;98.76;94822.78;110057;1271;138870;-89
2023/12/21 10:17:45;;;;;;;3.80;1.80;;;;;;;4.50;98.73;94819.68;110160;1272;22185;-89
2023/12/21 10:20:11;;;;;;;4.10;1.80;;;;;;;4.54;99.03;94809.49;109918;1277;146847;-89
2023/12/21 10:22:39;;;;;;;2.30;1.40;;;;;;;4.58;99.14;94803.23;110091;1273;22250;-89
2023/12/21 10:25:08;;;;;;;10.90;4.80;;;;;;;4.59;99.36;94798.17;110048;1278;22445;-89
2023/12/21 10:27:34;;;;;;;9.20;3.90;;;;;;;4.62;99.27;94791.23;109993;1277;137980;-89
2023/12/21 10:30:01;;;;;;;6.20;3.80;;;;;;;4.63;99.09;94790.34;110137;1267;22443;-89
2023/12/21 10:32:28;;;;;;;2.70;1.70;;;;;;;4.63;99.01;94782.34;110277;1270;138077;-89
2023/12/21 10:34:54;;;;;;;5.70;3.10;;;;;;;4.61;98.88;94772.47;110057;1279;22245;-89
2023/12/21 10:37:22;;;;;;;8.30;5.40;;;;;;;4.60;98.93;94767.51;110108;1277;22397;-89
2023/12/21 10:39:48;;;;;;;2.20;1.20;;;;;;;4.57;98.81;94748.57;110028;1273;137886;-88
2023/12/21 10:42:14;;;;;;;3.80;2.00;;;;;;;4.54;98.95;94737.48;110049;1275;22242;-89
2023/12/21 10:44:50;;;;;;;1.90;1.30;;;;;;;4.49;98.90;94733.92;110253;1270;138640;-88
2023/12/21 10:47:16;;;;;;;5.20;3.10;;;;;;;4.46;99.07;94720.96;110396;1269;23230;-89
2023/12/21 10:49:43;;;;;;;6.20;3.70;;;;;;;4.45;98.77;94719.85;110203;1270;138288;-89
2023/12/21 10:52:12;;;;;;;2.20;1.40;;;;;;;4.43;98.78;94719.95;110143;1271;22178;-89
2023/12/21 10:54:42;;;;;;;6.00;2.90;;;;;;;4.42;99.25;94707.17;110143;1276;22269;-89
2023/12/21 10:57:09;;;;;;;1.30;1.10;;;;;;;4.40;99.12;94698.80;110259;1277;138124;-89
2023/12/21 10:59:35;;;;;;;3.60;1.80;;;;;;;4.36;99.12;94691.91;110153;1277;22238;-88
2023/12/21 11:02:02;;;;;;;2.00;1.20;;;;;;;4.34;99.08;94681.21;110010;1277;139066;-89
2023/12/21 11:04:29;;;;;;;1.80;1.30;;;;;;;4.31;99.38;94684.67;110131;1273;22193;-89
2023/12/21 11:06:55;;;;;;;4.60;3.10;;;;;;;4.30;99.55;94678.52;110091;1270;22708;-89
2023/12/21 11:09:25;;;;;;;3.30;1.70;;;;;;;4.28;99.54;94670.84;110044;1271;138292;-89
2023/12/21 11:11:57;;;;;;;3.10;1.40;;;;;;;4.27;99.64;94661.05;109998;1273;22240;-89
2023/12/21 11:14:24;;;;;;;7.20;3.50;;;;;;;4.25;99.66;94655.91;110241;1269;138029;-88
2023/12/21 11:16:54;;;;;;;2.80;1.80;;;;;;;4.27;99.80;94646.98;110002;1266;23382;-89
2023/12/21 11:19:25;;;;;;;2.20;1.50;;;;;;;4.27;99.82;94643.83;110106;1277;22267;-89
2023/12/21 11:21:51;;;;;;;1.20;0.90;;;;;;;4.27;99.99;94640.61;109901;1278;137812;-89